Time;durP1;ratioP1;P1;durP2;ratioP2;P2;SDS_P1;SDS_P2;PMS_P1;PMS_P2;Temp;Humidity;BMP_temperature;BMP_pressure;BME280_temperature;BME280_humidity;BME280_pressure;Samples;Min_cycle;Max_cycle;Signal;HPM_P1;HPM_P2
2021/05/10 00:01:03;;;;;;;1.80;1.40;;;18.50;78.00;;;;;;5072259;28;20255;-60
2021/05/10 00:03:29;;;;;;;2.20;1.60;;;18.40;79.00;;;;;;5072217;28;20209;-60
2021/05/10 00:05:56;;;;;;;1.80;1.37;;;18.30;79.90;;;;;;5072128;28;20266;-60
2021/05/10 00:08:25;;;;;;;1.70;1.17;;;18.20;80.80;;;;;;5072343;28;20273;-61
2021/05/10 00:10:51;;;;;;;1.80;1.20;;;18.10;81.20;;;;;;5072889;28;20216;-61
2021/05/10 00:13:18;;;;;;;3.27;1.37;;;18.00;81.80;;;;;;5073048;28;20209;-60
2021/05/10 00:15:45;;;;;;;2.60;1.30;;;17.90;82.60;;;;;;5072303;28;20616;-61
2021/05/10 00:18:13;;;;;;;2.67;1.40;;;17.80;84.30;;;;;;5071980;28;20232;-61
2021/05/10 00:20:41;;;;;;;1.40;1.30;;;17.60;85.80;;;;;;5071988;28;20591;-61
2021/05/10 00:23:09;;;;;;;2.27;1.40;;;17.60;86.40;;;;;;5072131;28;20228;-61
2021/05/10 00:25:36;;;;;;;2.50;1.47;;;17.50;86.90;;;;;;5071788;28;20201;-60
2021/05/10 00:28:03;;;;;;;1.97;1.27;;;17.50;87.20;;;;;;5071706;28;20205;-60
2021/05/10 00:30:29;;;;;;;2.27;1.50;;;17.50;88.10;;;;;;5072524;28;20212;-60
2021/05/10 00:32:55;;;;;;;1.53;1.30;;;17.40;88.60;;;;;;5072253;28;20233;-59
2021/05/10 00:35:24;;;;;;;3.33;1.67;;;17.40;89.50;;;;;;5072134;28;20209;-59
2021/05/10 00:37:51;;;;;;;5.33;1.50;;;17.40;90.30;;;;;;5072181;28;20237;-60
2021/05/10 00:40:20;;;;;;;1.57;1.00;;;17.40;90.50;;;;;;5072147;28;20212;-59
2021/05/10 00:42:47;;;;;;;3.10;1.50;;;17.30;90.90;;;;;;5072360;28;20220;-61
2021/05/10 00:45:13;;;;;;;1.93;1.30;;;17.30;91.40;;;;;;5071880;28;20208;-61
2021/05/10 00:47:40;;;;;;;1.40;1.30;;;17.20;92.00;;;;;;5072161;28;20750;-60
2021/05/10 00:50:09;;;;;;;1.57;1.40;;;17.00;92.50;;;;;;5072824;28;20204;-60
2021/05/10 00:52:36;;;;;;;3.40;1.20;;;16.80;92.80;;;;;;5072665;28;20550;-61
2021/05/10 00:55:03;;;;;;;1.87;1.23;;;16.80;93.00;;;;;;5072672;28;20205;-59
2021/05/10 00:57:33;;;;;;;1.87;1.50;;;16.80;93.20;;;;;;5071976;28;20229;-60
2021/05/10 01:00:00;;;;;;;2.53;1.43;;;16.70;93.40;;;;;;5072831;28;20661;-60
2021/05/10 01:02:27;;;;;;;2.50;1.50;;;16.60;93.80;;;;;;5072679;28;20213;-61
2021/05/10 01:04:53;;;;;;;4.93;1.43;;;16.50;94.60;;;;;;5072299;28;20209;-61
2021/05/10 01:07:19;;;;;;;4.27;1.40;;;16.30;95.10;;;;;;5071836;28;20762;-60
2021/05/10 01:09:45;;;;;;;2.33;1.40;;;16.30;95.60;;;;;;5071945;28;20200;-61
2021/05/10 01:12:11;;;;;;;1.53;1.40;;;16.20;96.10;;;;;;5071903;28;20692;-61
2021/05/10 01:14:38;;;;;;;3.47;1.40;;;16.10;96.50;;;;;;5071778;28;20205;-61
2021/05/10 01:17:05;;;;;;;3.13;1.27;;;16.10;96.80;;;;;;5071683;28;20736;-60
2021/05/10 01:19:35;;;;;;;1.73;1.50;;;16.00;97.20;;;;;;5071966;28;20589;-60
2021/05/10 01:22:05;;;;;;;2.17;1.33;;;15.80;97.70;;;;;;5071813;28;20209;-59
2021/05/10 01:24:32;;;;;;;3.63;1.50;;;15.70;97.80;;;;;;5071667;28;20217;-60
2021/05/10 01:26:58;;;;;;;2.10;1.40;;;15.60;97.90;;;;;;5072238;28;20235;-59
2021/05/10 01:29:24;;;;;;;1.50;1.30;;;15.60;98.00;;;;;;5071375;28;20219;-59
2021/05/10 01:31:51;;;;;;;2.20;1.43;;;15.40;98.30;;;;;;5071694;28;20665;-60
2021/05/10 01:34:17;;;;;;;2.23;1.40;;;15.40;98.80;;;;;;5072981;28;20201;-60
2021/05/10 01:36:43;;;;;;;2.20;1.50;;;15.30;99.20;;;;;;5073010;28;20225;-61
2021/05/10 01:39:09;;;;;;;1.97;1.30;;;15.40;99.30;;;;;;5073546;28;20209;-61
2021/05/10 01:41:36;;;;;;;3.07;1.50;;;15.40;99.10;;;;;;5073628;28;20250;-60
2021/05/10 01:44:03;;;;;;;2.50;1.40;;;15.40;98.90;;;;;;5073172;28;20205;-60
2021/05/10 01:46:29;;;;;;;1.90;1.33;;;15.40;99.30;;;;;;5072230;28;20217;-60
2021/05/10 01:48:55;;;;;;;2.37;1.40;;;15.30;99.30;;;;;;5071717;28;20545;-60
2021/05/10 01:51:26;;;;;;;3.57;1.43;;;15.30;99.30;;;;;;5072101;28;20209;-61
2021/05/10 01:53:52;;;;;;;3.20;1.27;;;15.30;99.40;;;;;;5075388;28;20208;-61
2021/05/10 01:56:19;;;;;;;1.80;1.30;;;15.30;99.40;;;;;;5074633;28;20229;-59
2021/05/10 01:58:51;;;;;;;2.17;1.03;;;15.30;99.30;;;;;;5074951;28;20549;-60
2021/05/10 02:01:18;;;;;;;1.40;1.30;;;15.30;99.10;;;;;;5075247;28;20204;-60
2021/05/10 02:03:44;;;;;;;3.30;1.60;;;15.30;98.70;;;;;;5075218;28;20217;-60
2021/05/10 02:06:10;;;;;;;1.97;1.23;;;15.20;98.40;;;;;;5074660;28;20233;-61
2021/05/10 02:08:37;;;;;;;1.73;1.20;;;15.10;98.20;;;;;;5074791;28;20205;-60
2021/05/10 02:11:03;;;;;;;2.70;1.20;;;15.20;98.30;;;;;;5074451;28;20677;-59
2021/05/10 02:13:30;;;;;;;2.13;1.20;;;15.10;98.10;;;;;;5074355;28;20702;-60
2021/05/10 02:15:58;;;;;;;2.23;1.40;;;15.20;98.20;;;;;;5074818;28;20233;-58
2021/05/10 02:18:29;;;;;;;3.13;1.23;;;15.20;98.20;;;;;;5074569;28;20622;-59
2021/05/10 02:20:56;;;;;;;5.07;1.50;;;15.20;98.10;;;;;;5074664;28;20208;-59
2021/05/10 02:23:23;;;;;;;2.40;1.80;;;15.10;98.20;;;;;;5074485;28;20258;-58
2021/05/10 02:25:51;;;;;;;1.97;1.30;;;15.00;98.50;;;;;;5076114;28;20205;-58
2021/05/10 02:28:18;;;;;;;2.10;1.40;;;14.90;98.80;;;;;;5077453;28;20216;-58
2021/05/10 02:30:46;;;;;;;6.03;2.07;;;14.90;99.00;;;;;;5078443;28;20209;-59
2021/05/10 02:33:14;;;;;;;4.37;1.70;;;14.80;99.10;;;;;;5078046;28;20209;-60
2021/05/10 02:35:42;;;;;;;1.70;1.50;;;14.70;99.40;;;;;;5075327;28;20234;-59
2021/05/10 02:38:09;;;;;;;2.40;1.63;;;14.70;99.30;;;;;;5075097;28;20308;-59
2021/05/10 02:40:35;;;;;;;2.20;1.90;;;14.80;99.10;;;;;;5076237;28;20216;-58
2021/05/10 02:43:02;;;;;;;1.43;1.33;;;14.80;98.70;;;;;;5076731;28;20247;-58
2021/05/10 02:45:28;;;;;;;2.47;1.50;;;14.70;98.80;;;;;;5076299;28;20262;-59
2021/05/10 02:47:54;;;;;;;1.97;1.33;;;14.60;99.10;;;;;;5075439;28;20229;-59
2021/05/10 02:50:24;;;;;;;2.67;1.40;;;14.80;99.00;;;;;;5075966;28;20645;-59
2021/05/10 02:52:51;;;;;;;4.20;2.30;;;14.80;98.70;;;;;;5076845;28;20680;-59
2021/05/10 02:55:18;;;;;;;2.53;1.90;;;14.80;98.50;;;;;;5076781;28;20193;-58
2021/05/10 02:57:45;;;;;;;8.03;5.80;;;14.90;98.50;;;;;;5076209;28;20279;-59
2021/05/10 03:00:14;;;;;;;4.63;2.37;;;14.90;98.30;;;;;;5076136;28;20209;-59
2021/05/10 03:02:40;;;;;;;3.30;2.80;;;14.90;98.60;;;;;;5074972;28;20205;-59
2021/05/10 03:05:09;;;;;;;3.87;1.47;;;14.80;98.70;;;;;;5074799;28;20283;-58
2021/05/10 03:07:37;;;;;;;4.20;2.37;;;14.80;99.10;;;;;;5075293;28;20225;-59
2021/05/10 03:10:06;;;;;;;4.43;3.50;;;14.70;99.10;;;;;;5075956;28;20299;-59
2021/05/10 03:12:33;;;;;;;3.97;2.83;;;14.70;99.10;;;;;;5075418;28;20201;-58
2021/05/10 03:14:59;;;;;;;3.60;3.30;;;14.70;99.10;;;;;;5075214;28;20668;-59
2021/05/10 03:17:26;;;;;;;3.67;2.10;;;14.70;98.80;;;;;;5075429;28;20235;-58
2021/05/10 03:19:52;;;;;;;2.60;2.10;;;14.70;98.70;;;;;;5075304;28;20217;-58
2021/05/10 03:22:19;;;;;;;4.27;1.53;;;14.70;98.70;;;;;;5075476;28;20221;-59
2021/05/10 03:24:46;;;;;;;6.27;2.60;;;14.70;98.50;;;;;;5075472;28;20209;-59
2021/05/10 03:27:12;;;;;;;4.53;3.13;;;14.70;97.90;;;;;;5096687;22;20228;-61
2021/05/10 03:29:38;;;;;;;1.70;1.30;;;14.80;98.00;;;;;;5072368;28;20217;-62
2021/05/10 03:32:05;;;;;;;2.17;1.40;;;14.80;97.90;;;;;;5072242;28;20205;-61
2021/05/10 03:34:31;;;;;;;2.67;1.70;;;14.80;97.70;;;;;;5072116;28;20204;-64
2021/05/10 03:36:57;;;;;;;2.63;1.60;;;14.80;97.40;;;;;;5072391;28;20366;-65
2021/05/10 03:39:24;;;;;;;2.47;1.80;;;14.90;97.20;;;;;;5072086;28;20204;-63
2021/05/10 03:41:51;;;;;;;4.73;2.90;;;15.00;97.10;;;;;;5072183;28;20209;-62
2021/05/10 03:44:17;;;;;;;5.77;3.70;;;15.10;96.80;;;;;;5071987;28;20583;-63
2021/05/10 03:46:43;;;;;;;2.90;2.27;;;15.20;96.60;;;;;;5072066;28;20225;-62
2021/05/10 03:49:09;;;;;;;2.97;2.30;;;15.20;96.40;;;;;;5072415;28;20205;-61
2021/05/10 03:51:36;;;;;;;3.57;2.40;;;15.20;96.10;;;;;;5072054;28;20212;-62
2021/05/10 03:54:02;;;;;;;2.97;2.50;;;15.30;95.90;;;;;;5071876;28;20251;-61
2021/05/10 03:56:28;;;;;;;4.20;2.20;;;15.30;95.70;;;;;;5071751;28;20270;-63
2021/05/10 03:58:55;;;;;;;5.83;2.77;;;15.50;95.40;;;;;;5071697;28;20205;-62
2021/05/10 04:01:21;;;;;;;3.00;2.37;;;15.70;95.00;;;;;;5071496;28;20208;-62
2021/05/10 04:03:52;;;;;;;5.40;2.70;;;15.90;94.40;;;;;;5071629;28;20205;-61
2021/05/10 04:06:50;;;;;;;3.93;2.90;;;15.90;94.10;;;;;;5071602;28;20681;-61
2021/05/10 04:14:45;;;;;;;3.17;2.50;;;16.30;93.40;;;;;;5071390;28;20216;-62
2021/05/10 04:17:11;;;;;;;3.50;1.90;;;16.40;93.30;;;;;;5071649;28;20282;-62
2021/05/10 04:19:38;;;;;;;3.17;1.50;;;16.50;93.10;;;;;;5071471;28;20228;-63
2021/05/10 04:22:04;;;;;;;2.23;1.67;;;16.60;92.90;;;;;;5071403;28;20205;-63
2021/05/10 04:24:30;;;;;;;3.60;1.77;;;16.70;93.10;;;;;;5071252;28;20587;-63
2021/05/10 04:26:56;;;;;;;6.20;3.27;;;16.80;93.00;;;;;;5071444;28;20239;-62
2021/05/10 04:29:22;;;;;;;6.87;3.87;;;16.90;92.90;;;;;;5071223;28;20283;-63
2021/05/10 04:31:50;;;;;;;7.20;4.73;;;17.00;92.60;;;;;;5071174;28;20213;-62
2021/05/10 04:34:16;;;;;;;5.77;2.40;;;17.10;92.60;;;;;;5070790;28;20247;-64
2021/05/10 04:36:42;;;;;;;7.73;4.00;;;17.20;92.60;;;;;;5070951;28;20233;-63
2021/05/10 04:39:08;;;;;;;5.00;4.10;;;17.30;92.40;;;;;;5071221;28;20208;-64
2021/05/10 04:41:34;;;;;;;3.63;1.97;;;17.40;92.40;;;;;;5071145;28;20235;-63
2021/05/10 04:44:00;;;;;;;5.47;2.30;;;17.40;92.10;;;;;;5071111;28;20224;-63
2021/05/10 04:46:27;;;;;;;6.03;3.27;;;17.50;92.10;;;;;;5070602;28;20225;-62
2021/05/10 04:48:54;;;;;;;5.90;2.50;;;17.60;91.80;;;;;;5071271;28;20208;-63
2021/05/10 04:51:20;;;;;;;4.37;2.20;;;17.60;91.60;;;;;;5071046;28;20669;-63
2021/05/10 04:53:46;;;;;;;6.70;2.83;;;17.80;91.40;;;;;;5070829;28;20205;-62
2021/05/10 04:56:13;;;;;;;4.30;3.07;;;17.80;91.30;;;;;;5071332;28;20236;-62
2021/05/10 04:58:39;;;;;;;5.67;2.30;;;17.90;90.30;;;;;;5070870;28;20229;-63
2021/05/10 05:01:05;;;;;;;4.07;2.10;;;18.10;90.00;;;;;;5070930;28;20201;-64
2021/05/10 05:03:31;;;;;;;5.33;2.30;;;18.20;88.90;;;;;;5070861;28;20209;-63
2021/05/10 05:05:58;;;;;;;3.00;2.10;;;18.30;88.60;;;;;;5070824;28;20201;-63
2021/05/10 05:08:24;;;;;;;6.47;2.00;;;18.40;89.60;;;;;;5070829;28;20229;-63
2021/05/10 05:10:50;;;;;;;3.50;2.30;;;18.40;90.00;;;;;;5070767;28;20208;-63
2021/05/10 05:13:21;;;;;;;3.20;1.90;;;18.60;89.80;;;;;;5070802;28;20211;-63
2021/05/10 05:15:48;;;;;;;4.47;2.00;;;18.70;88.80;;;;;;5070801;28;20250;-64
2021/05/10 05:18:14;;;;;;;3.40;2.10;;;18.90;89.60;;;;;;5070419;28;20236;-64
2021/05/10 05:20:40;;;;;;;4.47;2.50;;;19.00;89.80;;;;;;5070545;28;20209;-64
2021/05/10 05:23:21;;;;;;;2.70;1.98;;;19.10;89.80;;;;;;5071213;28;20270;-64
2021/05/10 05:25:53;;;;;;;5.78;2.10;;;19.20;90.40;;;;;;5070808;28;20212;-63
2021/05/10 05:28:19;;;;;;;5.63;2.30;;;19.20;90.10;;;;;;5074266;28;20240;-63
2021/05/10 05:30:46;;;;;;;5.10;2.30;;;19.30;90.00;;;;;;5074655;28;20698;-63
2021/05/10 05:33:12;;;;;;;7.40;2.57;;;19.50;89.60;;;;;;5074794;28;20205;-63
2021/05/10 05:35:38;;;;;;;4.85;2.15;;;19.70;89.00;;;;;;5074721;28;20734;-62
2021/05/10 05:38:08;;;;;;;3.13;1.73;;;19.90;89.60;;;;;;5074789;28;20294;-63
2021/05/10 05:40:35;;;;;;;7.00;2.50;;;20.00;90.10;;;;;;5074848;28;20212;-62
2021/05/10 05:43:01;;;;;;;4.15;2.35;;;19.90;90.30;;;;;;5074670;28;20209;-63
2021/05/10 05:45:28;;;;;;;6.68;2.40;;;20.00;90.30;;;;;;5074081;28;20216;-63
2021/05/10 05:47:54;;;;;;;2.97;1.90;;;20.10;90.50;;;;;;5074248;28;20248;-64
2021/05/10 05:50:20;;;;;;;4.13;2.40;;;20.00;90.80;;;;;;5074838;28;20277;-64
2021/05/10 05:52:47;;;;;;;3.85;2.25;;;20.10;90.90;;;;;;5074462;28;20208;-62
2021/05/10 05:55:14;;;;;;;6.55;2.25;;;20.10;91.20;;;;;;5074225;28;20225;-64
2021/05/10 05:57:44;;;;;;;4.15;2.42;;;20.20;91.30;;;;;;5074184;28;20232;-63
2021/05/10 06:00:11;;;;;;;5.95;2.00;;;20.40;91.30;;;;;;5074060;28;20668;-63
2021/05/10 06:02:37;;;;;;;6.22;2.38;;;20.70;91.20;;;;;;5074086;28;20216;-64
2021/05/10 06:05:05;;;;;;;5.95;2.28;;;21.10;90.50;;;;;;5074288;28;20201;-64
2021/05/10 06:07:31;;;;;;;5.03;2.22;;;21.50;90.10;;;;;;5074320;28;20232;-64
2021/05/10 06:09:57;;;;;;;5.30;2.42;;;21.80;89.00;;;;;;5074639;28;20209;-64
2021/05/10 06:12:23;;;;;;;3.15;2.25;;;22.10;88.60;;;;;;5074082;28;20227;-63
2021/05/10 06:14:50;;;;;;;5.95;2.53;;;22.30;87.20;;;;;;5074403;28;20200;-65
2021/05/10 06:17:16;;;;;;;4.82;2.65;;;22.60;86.50;;;;;;5075161;28;20228;-63
2021/05/10 06:19:43;;;;;;;5.10;2.33;;;22.80;86.20;;;;;;5074265;28;20209;-64
2021/05/10 06:22:09;;;;;;;5.28;2.30;;;23.10;85.40;;;;;;5074551;28;20568;-64
2021/05/10 06:24:35;;;;;;;7.53;2.45;;;23.30;83.70;;;;;;5074063;28;20270;-63
2021/05/10 06:27:01;;;;;;;11.50;2.67;;;23.60;82.60;;;;;;5073641;28;20295;-62
2021/05/10 06:29:28;;;;;;;4.07;2.25;;;23.60;82.10;;;;;;5073544;28;20213;-62
2021/05/10 06:31:55;;;;;;;6.32;1.70;;;23.30;81.20;;;;;;5073794;28;20593;-63
2021/05/10 06:34:21;;;;;;;4.53;2.00;;;22.80;81.80;;;;;;5073832;28;20262;-62
2021/05/10 06:36:47;;;;;;;7.32;1.95;;;22.50;85.30;;;;;;5073815;28;20236;-64
2021/05/10 06:39:13;;;;;;;3.35;2.00;;;22.30;87.00;;;;;;5073491;28;20212;-64
2021/05/10 06:41:40;;;;;;;9.25;2.00;;;22.50;88.00;;;;;;5073779;28;20213;-61
2021/05/10 06:44:06;;;;;;;11.27;2.05;;;23.10;86.40;;;;;;5073425;28;20295;-60
2021/05/10 06:46:33;;;;;;;4.18;2.00;;;23.70;83.00;;;;;;5073692;28;20229;-64
2021/05/10 06:49:00;;;;;;;5.28;1.98;;;24.40;79.60;;;;;;5073285;28;20217;-64
2021/05/10 06:51:26;;;;;;;6.88;2.17;;;25.30;75.40;;;;;;5073377;28;20212;-63
2021/05/10 06:53:52;;;;;;;9.70;2.20;;;25.80;72.00;;;;;;5073252;28;20211;-62
2021/05/10 06:56:18;;;;;;;5.63;1.88;;;26.10;70.20;;;;;;5073216;28;20228;-62
2021/05/10 06:58:44;;;;;;;3.58;2.00;;;26.30;69.60;;;;;;5073141;28;20232;-63
2021/05/10 07:01:11;;;;;;;7.45;2.00;;;26.50;68.30;;;;;;5073196;28;20686;-64
2021/05/10 07:03:37;;;;;;;3.85;1.65;;;26.60;66.80;;;;;;5073000;28;20213;-64
2021/05/10 07:06:04;;;;;;;3.17;1.90;;;26.60;65.80;;;;;;5072977;28;20586;-63
2021/05/10 07:08:30;;;;;;;2.40;1.60;;;26.70;64.90;;;;;;5072702;28;20739;-62
2021/05/10 07:10:57;;;;;;;5.32;1.85;;;26.90;64.10;;;;;;5072853;28;20216;-62
2021/05/10 07:13:23;;;;;;;6.10;2.97;;;27.10;64.30;;;;;;5072647;28;20736;-63
2021/05/10 07:15:49;;;;;;;5.50;1.88;;;27.30;63.30;;;;;;5073173;28;20221;-63
2021/05/10 07:18:16;;;;;;;3.63;1.40;;;27.40;62.00;;;;;;5072487;28;20865;-63
2021/05/10 07:20:44;;;;;;;5.03;1.80;;;27.50;61.30;;;;;;5072806;28;20201;-62
2021/05/10 07:23:12;;;;;;;5.88;2.47;;;27.60;60.10;;;;;;5073037;28;20209;-61
2021/05/10 07:25:41;;;;;;;4.10;1.92;;;27.90;60.50;;;;;;5072432;28;20435;-63
2021/05/10 07:28:07;;;;;;;5.45;1.90;;;28.40;59.00;;;;;;5072329;28;20231;-63
2021/05/10 07:30:34;;;;;;;6.95;1.90;;;28.80;57.60;;;;;;5072766;28;20205;-63
2021/05/10 07:33:00;;;;;;;3.80;1.80;;;29.60;56.10;;;;;;5072744;28;20200;-64
2021/05/10 07:35:26;;;;;;;1.88;1.58;;;30.90;53.40;;;;;;5072285;28;20591;-62
2021/05/10 07:37:53;;;;;;;5.07;1.77;;;32.60;50.10;;;;;;5072116;28;20242;-62
2021/05/10 07:40:23;;;;;;;3.25;1.50;;;34.00;47.40;;;;;;5072234;28;20255;-61
2021/05/10 07:42:49;;;;;;;4.10;2.13;;;35.10;45.10;;;;;;5072461;28;20211;-61
2021/05/10 07:45:15;;;;;;;4.25;1.60;;;36.30;43.30;;;;;;5072411;28;20254;-63
2021/05/10 07:47:43;;;;;;;4.95;1.95;;;37.40;41.30;;;;;;5072564;28;20254;-63
2021/05/10 07:50:10;;;;;;;2.70;1.60;;;38.50;40.20;;;;;;5072030;28;20232;-60
2021/05/10 07:52:36;;;;;;;5.82;1.50;;;38.70;39.10;;;;;;5072397;28;20251;-64
2021/05/10 07:55:04;;;;;;;4.70;1.10;;;38.00;37.90;;;;;;5072379;28;20266;-63
2021/05/10 07:57:31;;;;;;;6.80;1.40;;;37.30;38.40;;;;;;5071802;28;20243;-63
2021/05/10 07:59:57;;;;;;;4.53;1.30;;;36.50;39.40;;;;;;5071827;28;20205;-62
2021/05/10 08:02:24;;;;;;;2.65;1.30;;;35.40;40.80;;;;;;5071881;28;20357;-62
2021/05/10 08:04:51;;;;;;;3.25;1.30;;;35.10;41.50;;;;;;5071664;28;20204;-62
2021/05/10 08:07:17;;;;;;;4.03;1.60;;;34.50;42.20;;;;;;5071679;28;20221;-63
2021/05/10 08:09:43;;;;;;;3.13;1.48;;;34.30;42.80;;;;;;5071566;28;20204;-63
2021/05/10 08:12:11;;;;;;;3.70;1.70;;;34.60;42.50;;;;;;5071528;28;20684;-61
2021/05/10 08:14:39;;;;;;;4.13;1.58;;;34.70;42.60;;;;;;5071410;28;20244;-62
2021/05/10 08:17:05;;;;;;;3.88;2.00;;;34.90;42.10;;;;;;5071630;28;20236;-63
2021/05/10 08:19:32;;;;;;;6.45;1.55;;;34.20;42.90;;;;;;5071853;28;20201;-62
2021/05/10 08:21:59;;;;;;;3.47;1.50;;;33.20;44.40;;;;;;5071340;28;20209;-62
2021/05/10 08:24:25;;;;;;;5.53;1.63;;;32.30;45.90;;;;;;5071531;28;20213;-63
2021/05/10 08:26:52;;;;;;;5.30;1.60;;;31.70;47.10;;;;;;5071471;28;20236;-61
2021/05/10 08:29:19;;;;;;;4.65;1.50;;;32.00;46.80;;;;;;5071293;28;20300;-63
2021/05/10 08:31:46;;;;;;;2.33;1.35;;;33.00;46.40;;;;;;5071353;28;20246;-61
2021/05/10 08:34:13;;;;;;;3.00;1.65;;;33.40;45.30;;;;;;5071021;28;20585;-63
2021/05/10 08:36:39;;;;;;;6.68;1.52;;;32.70;46.20;;;;;;5070755;28;20708;-63
2021/05/10 08:39:08;;;;;;;5.32;1.40;;;31.80;47.40;;;;;;5071117;28;20228;-65
2021/05/10 08:41:35;;;;;;;3.97;1.65;;;30.90;49.00;;;;;;5071344;28;20657;-65
2021/05/10 08:44:04;;;;;;;3.08;1.63;;;30.10;50.50;;;;;;5070979;28;20270;-65
2021/05/10 08:46:31;;;;;;;2.05;1.35;;;29.80;50.80;;;;;;5070792;28;20704;-65
2021/05/10 08:48:58;;;;;;;6.65;1.90;;;29.70;51.30;;;;;;5070854;28;20201;-65
2021/05/10 08:51:25;;;;;;;4.07;1.70;;;29.60;51.60;;;;;;5071020;28;20212;-63
2021/05/10 08:53:51;;;;;;;5.57;1.73;;;29.40;51.80;;;;;;5071012;28;20262;-66
2021/05/10 08:56:17;;;;;;;3.28;1.33;;;28.90;52.90;;;;;;5071337;28;20208;-66
2021/05/10 08:58:45;;;;;;;4.38;1.90;;;28.60;53.80;;;;;;5071053;28;20661;-65
2021/05/10 09:01:12;;;;;;;3.58;1.60;;;28.20;55.30;;;;;;5070235;28;20296;-66
2021/05/10 09:03:41;;;;;;;3.90;1.70;;;28.00;55.60;;;;;;5071482;28;20228;-64
2021/05/10 09:06:12;;;;;;;4.43;1.40;;;27.80;55.60;;;;;;5070872;28;20201;-65
2021/05/10 09:08:40;;;;;;;5.00;1.48;;;28.00;55.20;;;;;;5071162;28;20270;-65
2021/05/10 09:11:09;;;;;;;2.95;1.63;;;28.30;55.10;;;;;;5070850;28;20322;-64
2021/05/10 09:13:38;;;;;;;3.10;1.35;;;28.60;55.30;;;;;;5070740;28;20258;-63
2021/05/10 09:16:04;;;;;;;3.58;1.73;;;28.70;54.40;;;;;;5070494;28;20200;-65
2021/05/10 09:18:31;;;;;;;6.15;1.80;;;28.50;55.50;;;;;;5070977;28;20224;-63
2021/05/10 09:21:11;;;;;;;6.55;1.75;;;28.40;55.30;;;;;;5070903;28;20200;-64
2021/05/10 09:23:37;;;;;;;5.28;1.80;;;28.50;55.40;;;;;;5070389;28;20710;-65
2021/05/10 09:26:03;;;;;;;6.20;2.20;;;28.50;55.50;;;;;;5070637;28;20246;-64
2021/05/10 09:28:37;;;;;;;4.18;1.70;;;28.70;55.30;;;;;;5070786;28;20240;-63
2021/05/10 09:31:05;;;;;;;3.28;1.30;;;28.90;55.20;;;;;;5070666;28;20219;-63
2021/05/10 09:33:33;;;;;;;8.75;1.67;;;28.90;55.30;;;;;;5070562;28;20255;-62
2021/05/10 09:36:06;;;;;;;5.00;1.85;;;28.60;55.30;;;;;;5070323;28;20213;-62
2021/05/10 09:38:35;;;;;;;2.70;1.30;;;28.30;55.90;;;;;;5070377;28;20331;-63
2021/05/10 09:41:03;;;;;;;3.22;2.08;;;28.10;55.90;;;;;;5070231;28;20201;-63
2021/05/10 09:43:32;;;;;;;4.45;1.58;;;28.20;56.80;;;;;;5070985;28;20607;-64
2021/05/10 09:46:01;;;;;;;3.20;1.60;;;28.50;55.70;;;;;;5070505;28;20212;-62
2021/05/10 09:48:29;;;;;;;2.95;1.77;;;29.00;55.40;;;;;;5070102;28;20256;-63
2021/05/10 09:50:58;;;;;;;5.97;1.80;;;29.30;54.70;;;;;;5070342;28;20668;-62
2021/05/10 09:53:41;;;;;;;5.40;1.88;;;29.50;55.60;;;;;;5069815;28;20209;-62
2021/05/10 09:56:09;;;;;;;4.13;1.40;;;29.30;54.70;;;;;;5068316;28;20209;-64
2021/05/10 09:58:41;;;;;;;2.67;1.48;;;29.10;55.00;;;;;;5070201;28;20712;-63
2021/05/10 10:01:08;;;;;;;3.65;1.25;;;28.90;54.90;;;;;;5070600;28;20212;-63
2021/05/10 10:03:37;;;;;;;1.85;1.08;;;28.70;55.40;;;;;;5070685;28;20209;-62
2021/05/10 10:06:06;;;;;;;3.90;1.35;;;28.40;55.50;;;;;;5070664;28;20687;-63
2021/05/10 10:08:33;;;;;;;2.65;1.13;;;28.20;55.30;;;;;;5071035;28;20237;-62
2021/05/10 10:11:00;;;;;;;2.40;1.10;;;28.00;55.60;;;;;;5070888;28;20577;-64
2021/05/10 10:13:28;;;;;;;5.25;1.52;;;27.80;56.00;;;;;;5072330;28;20201;-62
2021/05/10 10:15:58;;;;;;;3.28;1.30;;;27.80;56.30;;;;;;5074008;28;20201;-62
2021/05/10 10:18:27;;;;;;;2.63;1.90;;;27.70;55.90;;;;;;5073727;28;20229;-63
2021/05/10 10:20:56;;;;;;;3.47;2.05;;;27.60;56.20;;;;;;5073963;28;20209;-63
2021/05/10 10:23:24;;;;;;;1.65;0.70;;;27.70;55.60;;;;;;5073516;28;20215;-62
2021/05/10 10:25:51;;;;;;;1.85;0.80;;;27.80;54.20;;;;;;5073651;28;20648;-63
2021/05/10 10:28:20;;;;;;;2.35;0.70;;;27.90;53.80;;;;;;5073043;28;20236;-62
2021/05/10 10:30:56;;;;;;;1.63;1.52;;;28.10;53.10;;;;;;5073454;28;20577;-65
2021/05/10 10:33:45;;;;;;;4.80;0.70;;;28.20;52.60;;;;;;5073553;28;20209;-65
2021/05/10 10:36:17;;;;;;;5.15;1.33;;;28.10;52.40;;;;;;5073782;28;20296;-63
2021/05/10 10:38:44;;;;;;;2.85;1.42;;;28.00;52.50;;;;;;5073612;28;20298;-64
2021/05/10 10:41:22;;;;;;;1.00;0.63;;;27.90;53.20;;;;;;5073831;28;20688;-64
2021/05/10 10:43:50;;;;;;;2.25;0.82;;;28.00;53.80;;;;;;5073332;28;20205;-64
2021/05/10 10:46:21;;;;;;;1.63;0.60;;;28.30;54.10;;;;;;5073510;28;20220;-64
2021/05/10 10:48:49;;;;;;;3.25;0.80;;;28.70;53.20;;;;;;5072990;28;20300;-63
2021/05/10 10:51:16;;;;;;;1.63;0.90;;;28.90;53.40;;;;;;5073133;28;20213;-63
2021/05/10 10:53:44;;;;;;;4.28;1.00;;;29.20;52.70;;;;;;5073136;28;20209;-64
2021/05/10 10:56:10;;;;;;;3.47;1.25;;;29.40;53.40;;;;;;5072839;28;20220;-63
2021/05/10 10:58:39;;;;;;;4.85;1.10;;;29.50;52.80;;;;;;5073230;28;20278;-64
2021/05/10 11:01:11;;;;;;;3.55;1.13;;;29.50;53.00;;;;;;5073143;28;20201;-63
2021/05/10 11:03:38;;;;;;;2.30;1.10;;;29.50;53.00;;;;;;5073129;28;20300;-63
2021/05/10 11:06:05;;;;;;;2.78;1.00;;;29.10;52.60;;;;;;5073073;28;20209;-65
2021/05/10 11:08:49;;;;;;;1.98;0.80;;;28.70;53.70;;;;;;5072972;28;20227;-64
2021/05/10 11:11:41;;;;;;;3.72;1.52;;;28.20;54.90;;;;;;5073450;28;20665;-64
2021/05/10 11:14:14;;;;;;;1.55;1.23;;;28.20;55.20;;;;;;5073505;28;20211;-66
2021/05/10 11:16:46;;;;;;;1.08;0.88;;;28.20;55.20;;;;;;5075157;28;20770;-64
2021/05/10 11:19:32;;;;;;;3.85;1.33;;;28.10;54.30;;;;;;5078111;28;20568;-63
2021/05/10 11:21:59;;;;;;;2.42;0.65;;;28.10;54.80;;;;;;5079492;28;20212;-64
2021/05/10 11:24:27;;;;;;;4.85;3.33;;;28.00;53.80;;;;;;5076946;28;20209;-65
2021/05/10 11:26:56;;;;;;;1.00;0.60;;;27.70;55.30;;;;;;5078818;28;20615;-64
2021/05/10 11:29:45;;;;;;;1.35;0.82;;;27.60;54.80;;;;;;5075392;28;20669;-64
2021/05/10 11:32:26;;;;;;;1.13;0.60;;;27.30;55.10;;;;;;5074537;28;20220;-63
2021/05/10 11:34:53;;;;;;;3.45;0.73;;;26.90;55.50;;;;;;5072808;28;20687;-63
2021/05/10 11:37:24;;;;;;;1.40;0.60;;;26.70;56.70;;;;;;5072130;28;20221;-64
2021/05/10 11:39:54;;;;;;;0.90;0.60;;;26.50;56.80;;;;;;5072146;28;20209;-64
2021/05/10 11:42:25;;;;;;;2.50;0.98;;;26.50;56.60;;;;;;5072632;28;20212;-65
2021/05/10 11:44:55;;;;;;;7.57;1.30;;;26.50;56.70;;;;;;5072623;28;20208;-64
2021/05/10 11:47:21;;;;;;;1.35;0.50;;;26.50;56.80;;;;;;5072276;28;20228;-64
2021/05/10 11:49:50;;;;;;;3.83;0.80;;;26.50;56.10;;;;;;5072163;28;20204;-65
2021/05/10 11:52:18;;;;;;;1.95;0.90;;;26.40;56.70;;;;;;5072184;28;20209;-63
2021/05/10 11:54:46;;;;;;;2.70;0.50;;;26.20;56.80;;;;;;5072270;28;20262;-64
2021/05/10 11:57:15;;;;;;;3.20;0.70;;;26.30;56.30;;;;;;5071981;28;20704;-64
2021/05/10 11:59:44;;;;;;;1.00;0.73;;;26.30;56.70;;;;;;5072019;28;20209;-65
2021/05/10 12:02:19;;;;;;;1.77;0.50;;;26.40;56.00;;;;;;5072365;28;20243;-64
2021/05/10 12:04:49;;;;;;;0.60;0.50;;;26.50;55.50;;;;;;5072536;28;20211;-64
2021/05/10 12:07:15;;;;;;;1.58;0.60;;;26.40;56.20;;;;;;5072840;28;20311;-64
2021/05/10 12:09:45;;;;;;;6.00;0.90;;;26.30;55.90;;;;;;5072242;28;20205;-64
2021/05/10 12:12:27;;;;;;;2.78;0.80;;;26.30;56.00;;;;;;5071920;28;20554;-64
2021/05/10 12:14:55;;;;;;;1.40;0.40;;;26.20;55.90;;;;;;5072047;28;20444;-64
2021/05/10 12:17:24;;;;;;;2.22;1.95;;;26.00;55.80;;;;;;5071467;28;20225;-65
2021/05/10 12:19:57;;;;;;;5.57;0.50;;;25.70;55.90;;;;;;5071911;28;20309;-65
2021/05/10 12:22:24;;;;;;;1.15;0.52;;;25.40;56.20;;;;;;5071703;28;20216;-64
2021/05/10 12:25:08;;;;;;;1.90;0.63;;;25.10;56.60;;;;;;5071175;28;20205;-64
2021/05/10 12:27:40;;;;;;;2.72;0.47;;;25.00;57.30;;;;;;5071075;28;20236;-64
2021/05/10 12:30:12;;;;;;;0.50;0.30;;;24.90;58.30;;;;;;5071388;28;20210;-66
2021/05/10 12:32:39;;;;;;;3.58;1.27;;;24.90;57.50;;;;;;5071489;28;20204;-65
2021/05/10 12:35:07;;;;;;;1.73;0.60;;;24.80;57.90;;;;;;5071189;28;20681;-65
2021/05/10 12:37:40;;;;;;;1.20;0.40;;;24.80;57.80;;;;;;5071456;28;20225;-65
2021/05/10 12:40:09;;;;;;;0.35;0.20;;;24.60;56.90;;;;;;5071401;28;20204;-63
2021/05/10 12:42:35;;;;;;;0.75;0.35;;;24.40;56.30;;;;;;5071624;28;20216;-64
2021/05/10 12:45:03;;;;;;;0.93;0.20;;;24.20;56.70;;;;;;5071133;28;20213;-65
2021/05/10 12:47:43;;;;;;;0.75;0.40;;;24.30;56.60;;;;;;5071072;28;20714;-64
2021/05/10 12:50:12;;;;;;;10.40;8.43;;;24.70;57.30;;;;;;5071159;28;20208;-64
2021/05/10 12:52:49;;;;;;;3.95;0.40;;;24.80;56.90;;;;;;5071696;28;20209;-65
2021/05/10 12:55:20;;;;;;;2.35;0.50;;;25.00;56.50;;;;;;5071730;28;20231;-65